sensor_id;sensor_type;location;lat;lon;timestamp;pressure;altitude;pressure_sealevel;temperature;humidity
72438;BME280;60444;43.534;-5.674;2023-02-22T00:00:59;102001.31;;;12.62;100.00
72438;BME280;60444;43.534;-5.674;2023-02-22T00:03:29;102010.00;;;12.70;100.00
72438;BME280;60444;43.534;-5.674;2023-02-22T00:06:04;101996.69;;;12.64;100.00
72438;BME280;60444;43.534;-5.674;2023-02-22T00:08:35;102003.81;;;12.66;100.00
72438;BME280;60444;43.534;-5.674;2023-02-22T00:11:04;102004.88;;;12.62;100.00
72438;BME280;60444;43.534;-5.674;2023-02-22T00:13:33;102002.13;;;12.64;100.00
72438;BME280;60444;43.534;-5.674;2023-02-22T00:16:00;102009.25;;;12.66;100.00
72438;BME280;60444;43.534;-5.674;2023-02-22T00:18:27;102004.00;;;12.62;100.00
72438;BME280;60444;43.534;-5.674;2023-02-22T00:20:57;101993.50;;;12.52;100.00
72438;BME280;60444;43.534;-5.674;2023-02-22T00:23:27;102008.47;;;12.63;100.00
72438;BME280;60444;43.534;-5.674;2023-02-22T00:25:54;102006.59;;;12.65;100.00
72438;BME280;60444;43.534;-5.674;2023-02-22T00:28:21;101991.63;;;12.55;100.00
72438;BME280;60444;43.534;-5.674;2023-02-22T00:30:48;101995.91;;;12.60;100.00
72438;BME280;60444;43.534;-5.674;2023-02-22T00:33:15;101978.28;;;12.48;100.00
72438;BME280;60444;43.534;-5.674;2023-02-22T00:35:41;102006.72;;;12.62;100.00
72438;BME280;60444;43.534;-5.674;2023-02-22T00:38:11;102003.00;;;12.64;100.00
72438;BME280;60444;43.534;-5.674;2023-02-22T00:40:36;101973.75;;;12.49;100.00
72438;BME280;60444;43.534;-5.674;2023-02-22T00:43:04;102006.59;;;12.65;100.00
72438;BME280;60444;43.534;-5.674;2023-02-22T00:45:31;102001.16;;;12.65;100.00
72438;BME280;60444;43.534;-5.674;2023-02-22T00:47:57;101999.34;;;12.65;100.00
72438;BME280;60444;43.534;-5.674;2023-02-22T00:50:24;101976.31;;;12.52;100.00
72438;BME280;60444;43.534;-5.674;2023-02-22T00:52:51;102010.28;;;12.64;100.00
72438;BME280;60444;43.534;-5.674;2023-02-22T00:55:20;102002.91;;;12.66;100.00
72438;BME280;60444;43.534;-5.674;2023-02-22T00:57:47;101993.16;;;12.62;100.00
72438;BME280;60444;43.534;-5.674;2023-02-22T01:02:47;101993.19;;;12.60;100.00
72438;BME280;60444;43.534;-5.674;2023-02-22T01:05:18;101996.72;;;12.62;100.00
72438;BME280;60444;43.534;-5.674;2023-02-22T01:07:45;101980.75;;;12.55;100.00
72438;BME280;60444;43.534;-5.674;2023-02-22T01:10:12;102001.16;;;12.65;100.00
72438;BME280;60444;43.534;-5.674;2023-02-22T01:12:38;101980.09;;;12.48;100.00
72438;BME280;60444;43.534;-5.674;2023-02-22T01:15:06;101997.00;;;12.56;100.00
72438;BME280;60444;43.534;-5.674;2023-02-22T01:17:35;102019.28;;;12.64;100.00
72438;BME280;60444;43.534;-5.674;2023-02-22T01:20:02;102032.00;;;12.64;100.00
72438;BME280;60444;43.534;-5.674;2023-02-22T01:22:34;102025.66;;;12.63;100.00
72438;BME280;60444;43.534;-5.674;2023-02-22T01:24:59;101999.94;;;12.50;100.00
72438;BME280;60444;43.534;-5.674;2023-02-22T01:27:25;102016.91;;;12.55;100.00
72438;BME280;60444;43.534;-5.674;2023-02-22T01:29:50;102019.81;;;12.50;100.00
72438;BME280;60444;43.534;-5.674;2023-02-22T01:32:16;102009.31;;;12.41;100.00
72438;BME280;60444;43.534;-5.674;2023-02-22T01:34:41;101993.66;;;12.25;100.00
72438;BME280;60444;43.534;-5.674;2023-02-22T01:37:07;102016.81;;;12.33;100.00
72438;BME280;60444;43.534;-5.674;2023-02-22T01:39:32;101995.59;;;12.21;100.00
72438;BME280;60444;43.534;-5.674;2023-02-22T01:41:58;102017.00;;;12.29;100.00
72438;BME280;60444;43.534;-5.674;2023-02-22T01:46:56;102006.31;;;12.24;100.00
72438;BME280;60444;43.534;-5.674;2023-02-22T01:49:25;102004.84;;;12.16;100.00
72438;BME280;60444;43.534;-5.674;2023-02-22T01:51:55;102005.72;;;12.16;100.00
72438;BME280;60444;43.534;-5.674;2023-02-22T01:54:30;101998.63;;;12.12;100.00
72438;BME280;60444;43.534;-5.674;2023-02-22T01:57:21;102021.72;;;12.24;100.00
72438;BME280;60444;43.534;-5.674;2023-02-22T01:59:51;102027.97;;;12.26;100.00
72438;BME280;60444;43.534;-5.674;2023-02-22T02:02:18;102022.72;;;12.21;100.00
72438;BME280;60444;43.534;-5.674;2023-02-22T02:04:46;101996.91;;;12.10;100.00
72438;BME280;60444;43.534;-5.674;2023-02-22T02:07:14;102007.66;;;12.13;100.00
72438;BME280;60444;43.534;-5.674;2023-02-22T02:12:14;102013.59;;;12.24;100.00
72438;BME280;60444;43.534;-5.674;2023-02-22T02:14:41;102015.28;;;12.26;100.00
72438;BME280;60444;43.534;-5.674;2023-02-22T02:17:10;102007.16;;;12.26;100.00
72438;BME280;60444;43.534;-5.674;2023-02-22T02:22:57;102002.56;;;12.28;100.00
72438;BME280;60444;43.534;-5.674;2023-02-22T02:37:11;101999.69;;;12.33;100.00
72438;BME280;60444;43.534;-5.674;2023-02-22T02:40:05;101974.53;;;12.28;100.00
72438;BME280;60444;43.534;-5.674;2023-02-22T02:42:45;101981.75;;;12.29;100.00
72438;BME280;60444;43.534;-5.674;2023-02-22T02:45:18;101956.72;;;12.21;100.00
72438;BME280;60444;43.534;-5.674;2023-02-22T02:47:51;101970.78;;;12.32;100.00
72438;BME280;60444;43.534;-5.674;2023-02-22T02:50:25;101946.88;;;12.18;100.00
72438;BME280;60444;43.534;-5.674;2023-02-22T02:52:54;101965.69;;;12.23;100.00
72438;BME280;60444;43.534;-5.674;2023-02-22T02:55:22;101954.72;;;12.26;100.00
72438;BME280;60444;43.534;-5.674;2023-02-22T02:57:47;101951.13;;;12.25;100.00
72438;BME280;60444;43.534;-5.674;2023-02-22T03:00:20;101972.38;;;12.37;100.00
72438;BME280;60444;43.534;-5.674;2023-02-22T03:06:37;101967.91;;;12.36;100.00
72438;BME280;60444;43.534;-5.674;2023-02-22T03:12:37;101955.47;;;12.29;100.00
72438;BME280;60444;43.534;-5.674;2023-02-22T03:18:13;101966.03;;;12.37;100.00
72438;BME280;60444;43.534;-5.674;2023-02-22T03:21:14;101941.22;;;12.24;100.00
72438;BME280;60444;43.534;-5.674;2023-02-22T03:27:08;101955.38;;;12.32;100.00
72438;BME280;60444;43.534;-5.674;2023-02-22T03:29:41;101957.25;;;12.30;100.00
72438;BME280;60444;43.534;-5.674;2023-02-22T03:32:15;101937.56;;;12.25;100.00
72438;BME280;60444;43.534;-5.674;2023-02-22T03:35:08;101948.13;;;12.33;100.00
72438;BME280;60444;43.534;-5.674;2023-02-22T03:37:39;101936.75;;;12.23;100.00
72438;BME280;60444;43.534;-5.674;2023-02-22T03:40:07;101950.84;;;12.33;100.00
72438;BME280;60444;43.534;-5.674;2023-02-22T03:42:50;101926.81;;;12.22;100.00
72438;BME280;60444;43.534;-5.674;2023-02-22T03:45:20;101935.69;;;12.27;100.00
72438;BME280;60444;43.534;-5.674;2023-02-22T03:47:50;101950.84;;;12.33;100.00
72438;BME280;60444;43.534;-5.674;2023-02-22T03:50:24;101933.91;;;12.26;100.00
72438;BME280;60444;43.534;-5.674;2023-02-22T03:52:54;101947.19;;;12.34;100.00
72438;BME280;60444;43.534;-5.674;2023-02-22T03:55:20;101922.50;;;12.17;100.00
72438;BME280;60444;43.534;-5.674;2023-02-22T03:57:50;101944.53;;;12.32;100.00
72438;BME280;60444;43.534;-5.674;2023-02-22T04:00:21;101951.66;;;12.35;100.00
72438;BME280;60444;43.534;-5.674;2023-02-22T04:02:47;101948.00;;;12.36;100.00
72438;BME280;60444;43.534;-5.674;2023-02-22T04:05:13;101941.91;;;12.29;100.00
72438;BME280;60444;43.534;-5.674;2023-02-22T04:07:40;101938.28;;;12.30;100.00
72438;BME280;60444;43.534;-5.674;2023-02-22T04:10:05;101939.31;;;12.26;100.00
72438;BME280;60444;43.534;-5.674;2023-02-22T04:12:33;101938.34;;;12.29;100.00
72438;BME280;60444;43.534;-5.674;2023-02-22T04:14:59;101944.69;;;12.28;100.00
72438;BME280;60444;43.534;-5.674;2023-02-22T04:17:25;101944.41;;;12.35;100.00
72438;BME280;60444;43.534;-5.674;2023-02-22T04:19:50;101917.84;;;12.20;100.00
72438;BME280;60444;43.534;-5.674;2023-02-22T04:22:16;101949.84;;;12.35;100.00
72438;BME280;60444;43.534;-5.674;2023-02-22T04:24:42;101949.00;;;12.33;100.00
72438;BME280;60444;43.534;-5.674;2023-02-22T04:27:07;101935.72;;;12.26;100.00
72438;BME280;60444;43.534;-5.674;2023-02-22T04:29:33;101946.28;;;12.33;100.00
72438;BME280;60444;43.534;-5.674;2023-02-22T04:31:58;101950.72;;;12.36;100.00
72438;BME280;60444;43.534;-5.674;2023-02-22T04:34:24;101925.06;;;12.21;100.00
72438;BME280;60444;43.534;-5.674;2023-02-22T04:36:49;101941.97;;;12.28;100.00
72438;BME280;60444;43.534;-5.674;2023-02-22T04:39:15;101933.84;;;12.28;100.00
72438;BME280;60444;43.534;-5.674;2023-02-22T04:41:40;101925.97;;;12.22;100.00
72438;BME280;60444;43.534;-5.674;2023-02-22T04:44:06;101936.41;;;12.32;100.00
72438;BME280;60444;43.534;-5.674;2023-02-22T04:46:32;101943.69;;;12.30;100.00
72438;BME280;60444;43.534;-5.674;2023-02-22T04:48:57;101954.28;;;12.38;100.00
72438;BME280;60444;43.534;-5.674;2023-02-22T04:51:23;101941.00;;;12.30;100.00
72438;BME280;60444;43.534;-5.674;2023-02-22T04:53:49;101941.06;;;12.29;100.00
72438;BME280;60444;43.534;-5.674;2023-02-22T04:56:18;101940.88;;;12.33;100.00
72438;BME280;60444;43.534;-5.674;2023-02-22T04:58:43;101940.94;;;12.32;100.00
72438;BME280;60444;43.534;-5.674;2023-02-22T05:01:09;101951.72;;;12.33;100.00
72438;BME280;60444;43.534;-5.674;2023-02-22T05:03:38;101964.34;;;12.34;100.00
72438;BME280;60444;43.534;-5.674;2023-02-22T05:06:03;101960.81;;;12.32;100.00
72438;BME280;60444;43.534;-5.674;2023-02-22T05:08:29;101961.72;;;12.31;100.00
72438;BME280;60444;43.534;-5.674;2023-02-22T05:10:57;101969.78;;;12.34;100.00
72438;BME280;60444;43.534;-5.674;2023-02-22T05:13:23;101959.16;;;12.28;100.00
72438;BME280;60444;43.534;-5.674;2023-02-22T05:15:48;101940.63;;;12.16;100.00
72438;BME280;60444;43.534;-5.674;2023-02-22T05:18:14;101967.13;;;12.33;100.00
72438;BME280;60444;43.534;-5.674;2023-02-22T05:20:39;101947.66;;;12.22;100.00
72438;BME280;60444;43.534;-5.674;2023-02-22T05:23:05;101961.03;;;12.26;100.00
72438;BME280;60444;43.534;-5.674;2023-02-22T05:25:32;101968.28;;;12.26;100.00
72438;BME280;60444;43.534;-5.674;2023-02-22T05:28:00;101938.91;;;12.14;100.00
72438;BME280;60444;43.534;-5.674;2023-02-22T05:30:30;101953.94;;;12.22;100.00
72438;BME280;60444;43.534;-5.674;2023-02-22T05:32:56;101963.88;;;12.23;100.00
72438;BME280;60444;43.534;-5.674;2023-02-22T05:35:23;101954.84;;;12.23;100.00
72438;BME280;60444;43.534;-5.674;2023-02-22T05:37:49;101962.00;;;12.25;100.00
72438;BME280;60444;43.534;-5.674;2023-02-22T05:40:17;101967.34;;;12.27;100.00
72438;BME280;60444;43.534;-5.674;2023-02-22T05:42:43;101963.03;;;12.21;100.00
72438;BME280;60444;43.534;-5.674;2023-02-22T05:45:12;101963.16;;;12.18;100.00
72438;BME280;60444;43.534;-5.674;2023-02-22T05:47:37;101967.47;;;12.24;100.00
72438;BME280;60444;43.534;-5.674;2023-02-22T05:50:03;101960.53;;;12.15;100.00
72438;BME280;60444;43.534;-5.674;2023-02-22T05:52:29;101963.16;;;12.18;100.00
72438;BME280;60444;43.534;-5.674;2023-02-22T05:54:55;101969.56;;;12.16;100.00
72438;BME280;60444;43.534;-5.674;2023-02-22T05:57:20;101966.09;;;12.12;100.00
72438;BME280;60444;43.534;-5.674;2023-02-22T05:59:46;101982.19;;;12.17;100.00
72438;BME280;60444;43.534;-5.674;2023-02-22T06:02:11;101973.19;;;12.16;100.00
72438;BME280;60444;43.534;-5.674;2023-02-22T06:04:37;101977.78;;;12.14;100.00
72438;BME280;60444;43.534;-5.674;2023-02-22T06:07:02;101976.03;;;12.12;100.00
72438;BME280;60444;43.534;-5.674;2023-02-22T06:09:28;101985.19;;;12.09;100.00
72438;BME280;60444;43.534;-5.674;2023-02-22T06:11:53;101964.81;;;11.98;100.00
72438;BME280;60444;43.534;-5.674;2023-02-22T06:14:19;101954.19;;;11.92;100.00
72438;BME280;60444;43.534;-5.674;2023-02-22T06:16:51;101969.53;;;11.93;100.00
72438;BME280;60444;43.534;-5.674;2023-02-22T06:19:16;101957.97;;;11.88;100.00
72438;BME280;60444;43.534;-5.674;2023-02-22T06:21:54;101966.06;;;11.89;100.00
72438;BME280;60444;43.534;-5.674;2023-02-22T06:24:21;101975.88;;;11.92;100.00
72438;BME280;60444;43.534;-5.674;2023-02-22T06:26:56;101946.72;;;11.74;100.00
72438;BME280;60444;43.534;-5.674;2023-02-22T06:29:23;101975.16;;;11.87;100.00
72438;BME280;60444;43.534;-5.674;2023-02-22T06:31:49;101961.78;;;11.82;100.00
72438;BME280;60444;43.534;-5.674;2023-02-22T06:34:15;101963.53;;;11.83;100.00
72438;BME280;60444;43.534;-5.674;2023-02-22T06:36:41;101963.59;;;11.82;100.00
72438;BME280;60444;43.534;-5.674;2023-02-22T06:39:07;101957.41;;;11.78;100.00
72438;BME280;60444;43.534;-5.674;2023-02-22T06:41:36;101969.94;;;11.82;100.00
72438;BME280;60444;43.534;-5.674;2023-02-22T06:44:02;101954.81;;;11.75;100.00
72438;BME280;60444;43.534;-5.674;2023-02-22T06:46:28;101967.22;;;11.82;100.00
72438;BME280;60444;43.534;-5.674;2023-02-22T06:48:53;101971.81;;;11.80;100.00
72438;BME280;60444;43.534;-5.674;2023-02-22T06:51:19;101971.63;;;11.85;100.00
72438;BME280;60444;43.534;-5.674;2023-02-22T06:53:46;101954.69;;;11.78;100.00
72438;BME280;60444;43.534;-5.674;2023-02-22T06:56:11;101938.81;;;11.68;100.00
72438;BME280;60444;43.534;-5.674;2023-02-22T06:58:37;101967.03;;;11.87;100.00
72438;BME280;60444;43.534;-5.674;2023-02-22T07:01:03;101944.00;;;11.74;100.00
72438;BME280;60444;43.534;-5.674;2023-02-22T07:03:28;101966.91;;;11.90;100.00
72438;BME280;60444;43.534;-5.674;2023-02-22T07:05:54;101971.41;;;11.91;100.00
72438;BME280;60444;43.534;-5.674;2023-02-22T07:08:19;101936.72;;;11.76;100.00
72438;BME280;60444;43.534;-5.674;2023-02-22T07:10:45;101975.03;;;11.90;100.00
72438;BME280;60444;43.534;-5.674;2023-02-22T07:13:10;101963.50;;;11.85;100.00
72438;BME280;60444;43.534;-5.674;2023-02-22T07:15:36;101963.53;;;11.83;100.00
72438;BME280;60444;43.534;-5.674;2023-02-22T07:18:02;101969.63;;;11.90;100.00
72438;BME280;60444;43.534;-5.674;2023-02-22T07:20:29;101958.25;;;11.80;100.00
72438;BME280;60444;43.534;-5.674;2023-02-22T07:22:55;101965.38;;;11.83;100.00
72438;BME280;60444;43.534;-5.674;2023-02-22T07:25:21;101945.09;;;11.68;100.00
72438;BME280;60444;43.534;-5.674;2023-02-22T07:27:48;101977.81;;;11.88;100.00
72438;BME280;60444;43.534;-5.674;2023-02-22T07:32:53;101980.53;;;11.88;100.00
72438;BME280;60444;43.534;-5.674;2023-02-22T07:35:31;101984.13;;;11.89;100.00
72438;BME280;60444;43.534;-5.674;2023-02-22T07:37:58;101980.66;;;11.85;100.00
72438;BME280;60444;43.534;-5.674;2023-02-22T07:40:25;101995.03;;;11.87;100.00
72438;BME280;60444;43.534;-5.674;2023-02-22T07:45:26;101998.59;;;11.89;100.00
72438;BME280;60444;43.534;-5.674;2023-02-22T07:47:51;101992.47;;;11.83;100.00
72438;BME280;60444;43.534;-5.674;2023-02-22T07:50:18;101983.56;;;11.79;100.00
72438;BME280;60444;43.534;-5.674;2023-02-22T07:52:49;102003.16;;;11.87;100.00
72438;BME280;60444;43.534;-5.674;2023-02-22T07:55:17;102005.97;;;11.84;100.00
72438;BME280;60444;43.534;-5.674;2023-02-22T07:57:47;102012.19;;;11.88;100.00
72438;BME280;60444;43.534;-5.674;2023-02-22T08:00:15;101994.53;;;11.76;100.00
72438;BME280;60444;43.534;-5.674;2023-02-22T08:02:41;102008.75;;;11.83;100.00
72438;BME280;60444;43.534;-5.674;2023-02-22T08:05:09;101997.28;;;11.75;100.00
72438;BME280;60444;43.534;-5.674;2023-02-22T08:07:37;102014.84;;;11.89;100.00
72438;BME280;60444;43.534;-5.674;2023-02-22T08:10:05;102005.97;;;11.84;100.00
72438;BME280;60444;43.534;-5.674;2023-02-22T08:12:33;102020.22;;;11.91;100.00
72438;BME280;60444;43.534;-5.674;2023-02-22T08:14:59;102022.03;;;11.90;100.00
72438;BME280;60444;43.534;-5.674;2023-02-22T08:17:24;102005.00;;;11.87;100.00
72438;BME280;60444;43.534;-5.674;2023-02-22T08:19:50;102004.88;;;11.90;100.00
72438;BME280;60444;43.534;-5.674;2023-02-22T08:22:15;102013.78;;;11.93;100.00
72438;BME280;60444;43.534;-5.674;2023-02-22T08:24:41;102019.84;;;12.01;100.00
72438;BME280;60444;43.534;-5.674;2023-02-22T08:27:06;102020.66;;;12.03;100.00
72438;BME280;60444;43.534;-5.674;2023-02-22T08:29:33;102024.97;;;12.09;100.00
72438;BME280;60444;43.534;-5.674;2023-02-22T08:31:59;102028.59;;;12.09;100.00
72438;BME280;60444;43.534;-5.674;2023-02-22T08:34:25;102019.72;;;12.04;100.00
72438;BME280;60444;43.534;-5.674;2023-02-22T08:36:50;102025.69;;;12.14;100.00
72438;BME280;60444;43.534;-5.674;2023-02-22T08:39:16;102021.38;;;12.08;100.00
72438;BME280;60444;43.534;-5.674;2023-02-22T08:41:41;102020.47;;;12.09;100.00
72438;BME280;60444;43.534;-5.674;2023-02-22T08:44:07;102022.09;;;12.13;100.00
72438;BME280;60444;43.534;-5.674;2023-02-22T08:46:32;102024.59;;;12.19;100.00
72438;BME280;60444;43.534;-5.674;2023-02-22T08:48:58;102023.81;;;12.16;100.00
72438;BME280;60444;43.534;-5.674;2023-02-22T08:51:24;102013.13;;;12.11;100.00
72438;BME280;60444;43.534;-5.674;2023-02-22T08:53:50;102031.69;;;12.23;100.00
72438;BME280;60444;43.534;-5.674;2023-02-22T08:56:15;102012.06;;;12.15;100.00
72438;BME280;60444;43.534;-5.674;2023-02-22T08:58:40;102024.59;;;12.19;100.00
72438;BME280;60444;43.534;-5.674;2023-02-22T09:01:06;102040.59;;;12.27;100.00
72438;BME280;60444;43.534;-5.674;2023-02-22T09:03:31;102015.50;;;12.20;100.00
72438;BME280;60444;43.534;-5.674;2023-02-22T09:05:57;102032.25;;;12.33;100.00
72438;BME280;60444;43.534;-5.674;2023-02-22T09:08:24;102007.38;;;12.20;100.00
72438;BME280;60444;43.534;-5.674;2023-02-22T09:10:49;102019.53;;;12.33;100.00
72438;BME280;60444;43.534;-5.674;2023-02-22T09:13:15;102038.25;;;12.41;100.00
72438;BME280;60444;43.534;-5.674;2023-02-22T09:15:41;102040.91;;;12.42;100.00
72438;BME280;60444;43.534;-5.674;2023-02-22T09:18:08;102040.06;;;12.40;100.00
72438;BME280;60444;43.534;-5.674;2023-02-22T09:20:34;102033.03;;;12.36;100.00
72438;BME280;60444;43.534;-5.674;2023-02-22T09:23:00;102032.78;;;12.42;100.00
72438;BME280;60444;43.534;-5.674;2023-02-22T09:25:28;102042.44;;;12.49;100.00
72438;BME280;60444;43.534;-5.674;2023-02-22T09:27:54;102028.38;;;12.38;100.00
72438;BME280;60444;43.534;-5.674;2023-02-22T09:30:33;102047.66;;;12.56;100.00
72438;BME280;60444;43.534;-5.674;2023-02-22T09:33:08;102041.34;;;12.55;100.00
72438;BME280;60444;43.534;-5.674;2023-02-22T09:35:35;102026.09;;;12.51;100.00
72438;BME280;60444;43.534;-5.674;2023-02-22T09:38:03;102028.66;;;12.56;100.00
72438;BME280;60444;43.534;-5.674;2023-02-22T09:40:31;102042.03;;;12.60;100.00
72438;BME280;60444;43.534;-5.674;2023-02-22T09:45:50;102041.28;;;12.57;100.00
72438;BME280;60444;43.534;-5.674;2023-02-22T09:48:22;102033.19;;;12.55;100.00
72438;BME280;60444;43.534;-5.674;2023-02-22T09:50:51;102037.63;;;12.58;100.00
72438;BME280;60444;43.534;-5.674;2023-02-22T09:53:41;102035.56;;;12.64;100.00
72438;BME280;60444;43.534;-5.674;2023-02-22T09:56:10;102042.59;;;12.70;100.00
72438;BME280;60444;43.534;-5.674;2023-02-22T09:58:39;102045.22;;;12.73;100.00
72438;BME280;60444;43.534;-5.674;2023-02-22T10:01:27;102046.97;;;12.74;100.00
72438;BME280;60444;43.534;-5.674;2023-02-22T10:04:04;102050.44;;;12.77;100.00
72438;BME280;60444;43.534;-5.674;2023-02-22T10:06:32;102044.97;;;12.79;100.00
72438;BME280;60444;43.534;-5.674;2023-02-22T10:09:00;102035.88;;;12.80;100.00
72438;BME280;60444;43.534;-5.674;2023-02-22T10:20:33;102032.69;;;12.92;100.00
72438;BME280;60444;43.534;-5.674;2023-02-22T10:25:52;102043.03;;;13.05;100.00
72438;BME280;60444;43.534;-5.674;2023-02-22T10:28:36;102027.63;;;13.06;100.00
72438;BME280;60444;43.534;-5.674;2023-02-22T10:31:06;102030.50;;;13.01;100.00
72438;BME280;60444;43.534;-5.674;2023-02-22T10:33:37;102025.94;;;13.03;100.00
72438;BME280;60444;43.534;-5.674;2023-02-22T10:36:04;102027.47;;;13.09;100.00
72438;BME280;60444;43.534;-5.674;2023-02-22T10:38:32;102014.03;;;13.06;100.00
72438;BME280;60444;43.534;-5.674;2023-02-22T10:43:33;102024.41;;;13.18;100.00
72438;BME280;60444;43.534;-5.674;2023-02-22T10:46:03;102027.72;;;13.26;100.00
72438;BME280;60444;43.534;-5.674;2023-02-22T10:48:32;102019.69;;;13.23;100.00
72438;BME280;60444;43.534;-5.674;2023-02-22T10:51:01;102011.41;;;13.26;100.00
72438;BME280;60444;43.534;-5.674;2023-02-22T10:53:28;102018.97;;;13.39;100.00
72438;BME280;60444;43.534;-5.674;2023-02-22T10:56:15;102017.22;;;13.38;100.00
72438;BME280;60444;43.534;-5.674;2023-02-22T11:01:24;102019.88;;;13.40;100.00
72438;BME280;60444;43.534;-5.674;2023-02-22T11:06:30;102021.59;;;13.42;100.00
72438;BME280;60444;43.534;-5.674;2023-02-22T11:09:22;102012.69;;;13.39;100.00
72438;BME280;60444;43.534;-5.674;2023-02-22T11:11:48;102018.66;;;13.47;100.00
72438;BME280;60444;43.534;-5.674;2023-02-22T11:14:28;102021.28;;;13.50;100.00
72438;BME280;60444;43.534;-5.674;2023-02-22T11:16:56;102012.22;;;13.49;100.00
72438;BME280;60444;43.534;-5.674;2023-02-22T11:19:30;102018.47;;;13.51;100.00
72438;BME280;60444;43.534;-5.674;2023-02-22T11:22:08;102008.38;;;13.55;100.00
72438;BME280;60444;43.534;-5.674;2023-02-22T11:24:44;102014.41;;;13.62;100.00
72438;BME280;60444;43.534;-5.674;2023-02-22T11:27:36;102014.91;;;13.71;100.00
72438;BME280;60444;43.534;-5.674;2023-02-22T11:32:49;102021.88;;;13.78;100.00
72438;BME280;60444;43.534;-5.674;2023-02-22T11:35:33;102008.50;;;13.72;100.00
72438;BME280;60444;43.534;-5.674;2023-02-22T11:38:19;102013.44;;;13.84;100.00
72438;BME280;60444;43.534;-5.674;2023-02-22T11:40:46;102015.41;;;13.81;100.00
72438;BME280;60444;43.534;-5.674;2023-02-22T11:43:18;102026.16;;;13.84;100.00
72438;BME280;60444;43.534;-5.674;2023-02-22T11:46:05;102016.78;;;13.91;100.00
72438;BME280;60444;43.534;-5.674;2023-02-22T11:48:34;102007.03;;;13.85;100.00
72438;BME280;60444;43.534;-5.674;2023-02-22T11:56:25;102012.75;;;13.99;100.00
72438;BME280;60444;43.534;-5.674;2023-02-22T12:01:55;101999.31;;;13.96;100.00
72438;BME280;60444;43.534;-5.674;2023-02-22T12:15:28;101998.34;;;14.17;100.00
72438;BME280;60444;43.534;-5.674;2023-02-22T12:18:11;101986.53;;;14.18;100.00
72438;BME280;60444;43.534;-5.674;2023-02-22T12:21:08;101974.00;;;14.14;100.00
72438;BME280;60444;43.534;-5.674;2023-02-22T12:23:44;101994.75;;;14.17;100.00
72438;BME280;60444;43.534;-5.674;2023-02-22T12:26:15;101968.16;;;14.03;100.00
72438;BME280;60444;43.534;-5.674;2023-02-22T12:28:54;101972.66;;;14.04;100.00
72438;BME280;60444;43.534;-5.674;2023-02-22T12:31:42;101980.69;;;14.07;100.00
72438;BME280;60444;43.534;-5.674;2023-02-22T12:36:54;101960.31;;;13.96;100.00
72438;BME280;60444;43.534;-5.674;2023-02-22T12:39:26;101969.03;;;14.04;100.00
72438;BME280;60444;43.534;-5.674;2023-02-22T12:41:58;101972.69;;;14.03;100.00
72438;BME280;60444;43.534;-5.674;2023-02-22T12:44:38;101963.94;;;13.96;100.00
72438;BME280;60444;43.534;-5.674;2023-02-22T12:47:06;101980.66;;;13.87;100.00
72438;BME280;60444;43.534;-5.674;2023-02-22T12:50:02;101971.09;;;13.79;100.00
72438;BME280;60444;43.534;-5.674;2023-02-22T12:52:48;101969.13;;;13.82;100.00
72438;BME280;60444;43.534;-5.674;2023-02-22T12:58:24;101963.44;;;13.67;100.00
72438;BME280;60444;43.534;-5.674;2023-02-22T13:03:41;101955.81;;;13.54;100.00
72438;BME280;60444;43.534;-5.674;2023-02-22T13:12:08;101963.50;;;13.65;100.00
72438;BME280;60444;43.534;-5.674;2023-02-22T13:22:43;101952.16;;;13.56;100.00
72438;BME280;60444;43.534;-5.674;2023-02-22T13:25:22;101945.19;;;13.48;100.00
72438;BME280;60444;43.534;-5.674;2023-02-22T13:30:43;101931.16;;;13.39;100.00
72438;BME280;60444;43.534;-5.674;2023-02-22T13:33:57;101940.72;;;13.47;100.00
72438;BME280;60444;43.534;-5.674;2023-02-22T13:52:54;101926.84;;;13.33;100.00
72438;BME280;60444;43.534;-5.674;2023-02-22T13:55:25;101908.38;;;13.21;100.00
72438;BME280;60444;43.534;-5.674;2023-02-22T13:58:06;101935.06;;;13.32;100.00
72438;BME280;60444;43.534;-5.674;2023-02-22T14:00:48;101933.28;;;13.31;100.00
72438;BME280;60444;43.534;-5.674;2023-02-22T14:13:11;101923.69;;;13.22;100.00
72438;BME280;60444;43.534;-5.674;2023-02-22T14:18:45;101917.25;;;13.25;100.00
72438;BME280;60444;43.534;-5.674;2023-02-22T14:21:13;101903.50;;;13.08;100.00
72438;BME280;60444;43.534;-5.674;2023-02-22T14:23:53;101892.63;;;13.08;100.00
72438;BME280;60444;43.534;-5.674;2023-02-22T14:26:26;101910.28;;;13.18;100.00
72438;BME280;60444;43.534;-5.674;2023-02-22T14:31:29;101898.44;;;13.20;100.00
72438;BME280;60444;43.534;-5.674;2023-02-22T14:33:59;101898.34;;;13.22;100.00
72438;BME280;60444;43.534;-5.674;2023-02-22T14:39:06;101877.69;;;13.18;100.00
72438;BME280;60444;43.534;-5.674;2023-02-22T14:41:37;101893.41;;;13.31;100.00
72438;BME280;60444;43.534;-5.674;2023-02-22T14:44:04;101887.22;;;13.28;100.00
72438;BME280;60444;43.534;-5.674;2023-02-22T14:46:35;101897.09;;;13.30;100.00
72438;BME280;60444;43.534;-5.674;2023-02-22T14:49:06;101904.84;;;13.18;100.00
72438;BME280;60444;43.534;-5.674;2023-02-22T14:51:41;101928.28;;;12.99;100.00
72438;BME280;60444;43.534;-5.674;2023-02-22T14:56:56;101922.91;;;12.29;100.00
72438;BME280;60444;43.534;-5.674;2023-02-22T14:59:25;101941.47;;;11.94;100.00
72438;BME280;60444;43.534;-5.674;2023-02-22T15:02:12;101947.06;;;11.63;100.00
72438;BME280;60444;43.534;-5.674;2023-02-22T15:04:38;101934.00;;;11.49;100.00
72438;BME280;60444;43.534;-5.674;2023-02-22T15:07:28;101919.97;;;11.38;100.00
72438;BME280;60444;43.534;-5.674;2023-02-22T15:13:03;101949.63;;;11.41;100.00
72438;BME280;60444;43.534;-5.674;2023-02-22T15:15:48;101949.88;;;11.34;100.00